^^
Saratoga-Weather Station Historical Data
Daily Summary for July 29, 2020 Units:  Both    English   Metric
Daily Weekly Monthly Yearly Custom
  High: Low: Average:
Temperature: 79.3 °F /  26.3 °C 50.7 °F /  10.4 °C 66.4 °F /  19.1 °C
Dew Point: 52.2 °F /  11.2 °C 46.9 °F /  8.3 °C 49.3 °F /  9.6 °C
Humidity: 88% 34% 57%
Wind Speed: 8.1mph /  13km/h - 1.7mph /  2.8km/h
Wind Gust: 12mph /  19.3km/h - -
Wind- - West
Pressure: 30.1 in /  1020.0 hPa 30 in /  1016.6 hPa -
Precipitation: 0 in /  0.0 mm    
Historical Graphs
 
 
Tabular Data for July 29, 2020
Time Temperature Dew Point Pressure Wind Wind Speed Wind Gust Humidity Rainfall Rate (Hourly) solar
00:03 62.4 °F /  16.9 °C 50 °F /  10 °C 30in /  1016.6hPa WNW 0.9mph /  1.4km/h 2mph /  3.2km/h 64% 0in /  0.0mm 0 W/m2
00:08 62.2 °F /  16.8 °C 50 °F /  10 °C 30in /  1016.6hPa WNW 0.9mph /  1.4km/h 2mph /  3.2km/h 64% 0in /  0.0mm 0 W/m2
00:13 62.1 °F /  16.7 °C 50.2 °F /  10.1 °C 30in /  1016.6hPa WNW 0.9mph /  1.4km/h 1mph /  1.6km/h 65% 0in /  0.0mm 0 W/m2
00:18 61.7 °F /  16.5 °C 49.8 °F /  9.9 °C 30in /  1016.9hPa WNW 2mph /  3.2km/h 2mph /  3.2km/h 65% 0in /  0.0mm 0 W/m2
00:23 61.3 °F /  16.3 °C 49.5 °F /  9.7 °C 30in /  1016.6hPa WNW 0.9mph /  1.4km/h 2mph /  3.2km/h 65% 0in /  0.0mm 0 W/m2
00:28 61.2 °F /  16.2 °C 49.6 °F /  9.8 °C 30in /  1016.9hPa Calm   1mph /  1.6km/h 66% 0in /  0.0mm 0 W/m2
00:33 61.2 °F /  16.2 °C 49.6 °F /  9.8 °C 30in /  1016.9hPa Calm   1mph /  1.6km/h 66% 0in /  0.0mm 0 W/m2
00:38 61 °F /  16.1 °C 49.5 °F /  9.7 °C 30in /  1016.9hPa Calm     66% 0in /  0.0mm 0 W/m2
00:43 60.6 °F /  15.9 °C 49.6 °F /  9.8 °C 30in /  1016.9hPa Calm     67% 0in /  0.0mm 0 W/m2
00:48 60.4 °F /  15.8 °C 49.5 °F /  9.7 °C 30in /  1016.9hPa Calm     67% 0in /  0.0mm 0 W/m2
00:53 60.1 °F /  15.6 °C 49.5 °F /  9.7 °C 30in /  1016.9hPa WNW 0.9mph /  1.4km/h 1mph /  1.6km/h 68% 0in /  0.0mm 0 W/m2
00:58 59.7 °F /  15.4 °C 49.5 °F /  9.7 °C 30in /  1016.9hPa WNW 2mph /  3.2km/h 3mph /  4.8km/h 69% 0in /  0.0mm 0 W/m2
01:03 59.5 °F /  15.3 °C 49.8 °F /  9.9 °C 30in /  1016.9hPa WNW 2mph /  3.2km/h 2mph /  3.2km/h 70% 0in /  0.0mm 0 W/m2
01:08 59.5 °F /  15.3 °C 49.3 °F /  9.6 °C 30in /  1016.9hPa West 2mph /  3.2km/h 3mph /  4.8km/h 69% 0in /  0.0mm 0 W/m2
01:13 59.7 °F /  15.4 °C 49.5 °F /  9.7 °C 30in /  1016.9hPa WSW 2mph /  3.2km/h 3mph /  4.8km/h 69% 0in /  0.0mm 0 W/m2
01:18 60.1 °F /  15.6 °C 49.5 °F /  9.7 °C 30in /  1016.9hPa West 0.9mph /  1.4km/h 3mph /  4.8km/h 68% 0in /  0.0mm 0 W/m2
01:23 60.1 °F /  15.6 °C 49.5 °F /  9.7 °C 30in /  1016.9hPa WSW 2mph /  3.2km/h 2mph /  3.2km/h 68% 0in /  0.0mm 0 W/m2
01:28 60.3 °F /  15.7 °C 49.6 °F /  9.8 °C 30in /  1016.9hPa West 2mph /  3.2km/h 4mph /  6.4km/h 68% 0in /  0.0mm 0 W/m2
01:33 60.3 °F /  15.7 °C 49.6 °F /  9.8 °C 30in /  1017.3hPa West 2.9mph /  4.7km/h 3mph /  4.8km/h 68% 0in /  0.0mm 0 W/m2
01:38 60.3 °F /  15.7 °C 49.6 °F /  9.8 °C 30in /  1017.3hPa West 2mph /  3.2km/h 3mph /  4.8km/h 68% 0in /  0.0mm 0 W/m2
01:43 60.3 °F /  15.7 °C 49.6 °F /  9.8 °C 30in /  1017.3hPa West 2mph /  3.2km/h 3mph /  4.8km/h 68% 0in /  0.0mm 0 W/m2
01:48 60.3 °F /  15.7 °C 49.6 °F /  9.8 °C 30in /  1017.3hPa WNW 2.9mph /  4.7km/h 5mph /  8km/h 68% 0in /  0.0mm 0 W/m2
01:53 60.3 °F /  15.7 °C 49.6 °F /  9.8 °C 30in /  1017.3hPa West 2mph /  3.2km/h 4mph /  6.4km/h 68% 0in /  0.0mm 0 W/m2
01:58 60.3 °F /  15.7 °C 49.3 °F /  9.6 °C 30in /  1017.3hPa West 2mph /  3.2km/h 4mph /  6.4km/h 67% 0in /  0.0mm 0 W/m2
02:03 60.3 °F /  15.7 °C 49.3 °F /  9.6 °C 30in /  1017.3hPa WSW 4mph /  6.4km/h 7mph /  11.3km/h 67% 0in /  0.0mm 0 W/m2
02:08 60.3 °F /  15.7 °C 49.3 °F /  9.6 °C 30in /  1017.3hPa West 2mph /  3.2km/h 4mph /  6.4km/h 67% 0in /  0.0mm 0 W/m2
02:13 60.3 °F /  15.7 °C 49.3 °F /  9.6 °C 30in /  1017.3hPa WNW 0.9mph /  1.4km/h 3mph /  4.8km/h 67% 0in /  0.0mm 0 W/m2
02:18 60.1 °F /  15.6 °C 49.1 °F /  9.5 °C 30in /  1017.3hPa West 2.9mph /  4.7km/h 4mph /  6.4km/h 67% 0in /  0.0mm 0 W/m2
02:23 59.9 °F /  15.5 °C 48.9 °F /  9.4 °C 30.1in /  1017.6hPa WSW 2mph /  3.2km/h 3mph /  4.8km/h 67% 0in /  0.0mm 0 W/m2
02:28 59.7 °F /  15.4 °C 49.1 °F /  9.5 °C 30.1in /  1017.6hPa WNW 0.9mph /  1.4km/h 3mph /  4.8km/h 68% 0in /  0.0mm 0 W/m2
02:33 59.5 °F /  15.3 °C 48.9 °F /  9.4 °C 30.1in /  1017.6hPa West 2mph /  3.2km/h 3mph /  4.8km/h 68% 0in /  0.0mm 0 W/m2
02:38 59.4 °F /  15.2 °C 48.7 °F /  9.3 °C 30.1in /  1017.6hPa West 2mph /  3.2km/h 2mph /  3.2km/h 68% 0in /  0.0mm 0 W/m2
02:44 59.4 °F /  15.2 °C 49.1 °F /  9.5 °C 30.1in /  1017.6hPa WNW 2mph /  3.2km/h 2mph /  3.2km/h 69% 0in /  0.0mm 0 W/m2
02:49 59.2 °F /  15.1 °C 49.1 °F /  9.5 °C 30in /  1017.3hPa WNW 0.9mph /  1.4km/h 1mph /  1.6km/h 69% 0in /  0.0mm 0 W/m2
02:54 58.8 °F /  14.9 °C 49.1 °F /  9.5 °C 30in /  1017.3hPa WNW 0.9mph /  1.4km/h 2mph /  3.2km/h 70% 0in /  0.0mm 0 W/m2
02:59 58.5 °F /  14.7 °C 48.7 °F /  9.3 °C 30.1in /  1017.6hPa Calm   1mph /  1.6km/h 70% 0in /  0.0mm 0 W/m2
03:04 58.3 °F /  14.6 °C 48.9 °F /  9.4 °C 30.1in /  1017.6hPa WNW 0.9mph /  1.4km/h 2mph /  3.2km/h 71% 0in /  0.0mm 0 W/m2
03:09 57.7 °F /  14.3 °C 48.7 °F /  9.3 °C 30in /  1017.3hPa WNW 0.9mph /  1.4km/h 2mph /  3.2km/h 72% 0in /  0.0mm 0 W/m2
03:14 57.6 °F /  14.2 °C 48.6 °F /  9.2 °C 30.1in /  1017.6hPa WNW 2mph /  3.2km/h 2mph /  3.2km/h 72% 0in /  0.0mm 0 W/m2
03:19 57.6 °F /  14.2 °C 48.9 °F /  9.4 °C 30.1in /  1017.6hPa Calm   1mph /  1.6km/h 73% 0in /  0.0mm 0 W/m2
03:24 57.4 °F /  14.1 °C 48.7 °F /  9.3 °C 30.1in /  1017.6hPa Calm     73% 0in /  0.0mm 0 W/m2
03:29 57 °F /  13.9 °C 48.4 °F /  9.1 °C 30.1in /  1017.6hPa Calm   1mph /  1.6km/h 73% 0in /  0.0mm 0 W/m2
03:34 56.8 °F /  13.8 °C 48.6 °F /  9.2 °C 30.1in /  1017.6hPa Calm   1mph /  1.6km/h 74% 0in /  0.0mm 0 W/m2
03:39 56.5 °F /  13.6 °C 48.7 °F /  9.3 °C 30.1in /  1017.6hPa Calm   1mph /  1.6km/h 75% 0in /  0.0mm 0 W/m2
03:44 56.1 °F /  13.4 °C 48.7 °F /  9.3 °C 30.1in /  1017.6hPa Calm   1mph /  1.6km/h 76% 0in /  0.0mm 0 W/m2
03:50 55.9 °F /  13.3 °C 48.6 °F /  9.2 °C 30.1in /  1018.0hPa Calm   1mph /  1.6km/h 76% 0in /  0.0mm 0 W/m2
03:55 55.8 °F /  13.2 °C 48.7 °F /  9.3 °C 30.1in /  1018.0hPa Calm   2mph /  3.2km/h 77% 0in /  0.0mm 0 W/m2
04:00 55.2 °F /  12.9 °C 48.2 °F /  9 °C 30.1in /  1018.0hPa Calm   1mph /  1.6km/h 77% 0in /  0.0mm 0 W/m2
04:05 55 °F /  12.8 °C 48.4 °F /  9.1 °C 30.1in /  1018.0hPa Calm   2mph /  3.2km/h 78% 0in /  0.0mm 0 W/m2
04:10 54.9 °F /  12.7 °C 48.2 °F /  9 °C 30.1in /  1018.0hPa Calm     78% 0in /  0.0mm 0 W/m2
04:15 54.7 °F /  12.6 °C 48.4 °F /  9.1 °C 30.1in /  1018.0hPa Calm     79% 0in /  0.0mm 0 W/m2
04:20 54.3 °F /  12.4 °C 48 °F /  8.9 °C 30.1in /  1018.0hPa Calm     79% 0in /  0.0mm 0 W/m2
04:25 54.1 °F /  12.3 °C 48 °F /  8.9 °C 30.1in /  1018.0hPa WNW 0.9mph /  1.4km/h 2mph /  3.2km/h 80% 0in /  0.0mm 0 W/m2
04:30 54.1 °F /  12.3 °C 48 °F /  8.9 °C 30.1in /  1018.0hPa WNW 0.9mph /  1.4km/h 2mph /  3.2km/h 80% 0in /  0.0mm 0 W/m2
04:35 54 °F /  12.2 °C 48 °F /  8.9 °C 30.1in /  1018.0hPa Calm     80% 0in /  0.0mm 0 W/m2
04:40 54 °F /  12.2 °C 48 °F /  8.9 °C 30.1in /  1018.0hPa Calm     80% 0in /  0.0mm 0 W/m2
04:45 53.8 °F /  12.1 °C 48 °F /  8.9 °C 30.1in /  1018.0hPa Calm     81% 0in /  0.0mm 0 W/m2
04:50 53.6 °F /  12 °C 47.8 °F /  8.8 °C 30.1in /  1018.0hPa Calm     81% 0in /  0.0mm 0 W/m2
04:55 53.4 °F /  11.9 °C 47.7 °F /  8.7 °C 30.1in /  1018.0hPa Calm     81% 0in /  0.0mm 0 W/m2
05:00 53.2 °F /  11.8 °C 47.8 °F /  8.8 °C 30.1in /  1018.0hPa Calm     82% 0in /  0.0mm 0 W/m2
05:05 53.2 °F /  11.8 °C 47.8 °F /  8.8 °C 30.1in /  1018.3hPa Calm     82% 0in /  0.0mm 0 W/m2
05:10 52.9 °F /  11.6 °C 47.5 °F /  8.6 °C 30.1in /  1018.3hPa Calm     82% 0in /  0.0mm 0 W/m2
05:15 52.9 °F /  11.6 °C 47.8 °F /  8.8 °C 30.1in /  1018.3hPa Calm     83% 0in /  0.0mm 0 W/m2
05:20 52.5 °F /  11.4 °C 47.5 °F /  8.6 °C 30.1in /  1018.3hPa Calm     83% 0in /  0.0mm 0 W/m2
05:25 52.3 °F /  11.3 °C 47.3 °F /  8.5 °C 30.1in /  1018.3hPa Calm     83% 0in /  0.0mm 0 W/m2
05:30 52.2 °F /  11.2 °C 47.5 °F /  8.6 °C 30.1in /  1018.3hPa Calm     84% 0in /  0.0mm 0 W/m2
05:35 52 °F /  11.1 °C 47.3 °F /  8.5 °C 30.1in /  1018.3hPa Calm     84% 0in /  0.0mm 0 W/m2
05:40 51.6 °F /  10.9 °C 47.3 °F /  8.5 °C 30.1in /  1018.3hPa Calm     85% 0in /  0.0mm 0 W/m2
05:45 51.6 °F /  10.9 °C 47.3 °F /  8.5 °C 30.1in /  1018.3hPa Calm     85% 0in /  0.0mm 0 W/m2
05:50 51.4 °F /  10.8 °C 47.5 °F /  8.6 °C 30.1in /  1018.3hPa Calm     86% 0in /  0.0mm 0 W/m2
05:55 51.3 °F /  10.7 °C 47.3 °F /  8.5 °C 30.1in /  1018.3hPa Calm     86% 0in /  0.0mm 0 W/m2
06:00 51.3 °F /  10.7 °C 47.3 °F /  8.5 °C 30.1in /  1018.3hPa Calm     86% 0in /  0.0mm 0 W/m2
06:05 51.3 °F /  10.7 °C 47.3 °F /  8.5 °C 30.1in /  1018.6hPa Calm     86% 0in /  0.0mm 5 W/m2
06:10 51.3 °F /  10.7 °C 47.3 °F /  8.5 °C 30.1in /  1018.6hPa Calm     86% 0in /  0.0mm 5 W/m2
06:16 51.1 °F /  10.6 °C 47.3 °F /  8.5 °C 30.1in /  1018.6hPa Calm     87% 0in /  0.0mm 7 W/m2
06:21 51.1 °F /  10.6 °C 47.3 °F /  8.5 °C 30.1in /  1018.6hPa Calm     87% 0in /  0.0mm 11 W/m2
06:26 50.9 °F /  10.5 °C 47.1 °F /  8.4 °C 30.1in /  1018.6hPa Calm     87% 0in /  0.0mm 11 W/m2
06:31 50.7 °F /  10.4 °C 46.9 °F /  8.3 °C 30.1in /  1018.6hPa Calm     87% 0in /  0.0mm 12 W/m2
06:36 50.7 °F /  10.4 °C 46.9 °F /  8.3 °C 30.1in /  1019.0hPa Calm   1mph /  1.6km/h 87% 0in /  0.0mm 16 W/m2
06:41 51.1 °F /  10.6 °C 47.7 °F /  8.7 °C 30.1in /  1019.0hPa Calm   1mph /  1.6km/h 88% 0in /  0.0mm 18 W/m2
06:46 51.1 °F /  10.6 °C 47.3 °F /  8.5 °C 30.1in /  1019.0hPa Calm     87% 0in /  0.0mm 19 W/m2
06:51 51.3 °F /  10.7 °C 47.5 °F /  8.6 °C 30.1in /  1019.0hPa WNW 0.9mph /  1.4km/h 1mph /  1.6km/h 87% 0in /  0.0mm 21 W/m2
06:56 51.4 °F /  10.8 °C 47.7 °F /  8.7 °C 30.1in /  1019.0hPa Calm     87% 0in /  0.0mm 25 W/m2
07:01 51.8 °F /  11 °C 48 °F /  8.9 °C 30.1in /  1019.0hPa Calm     87% 0in /  0.0mm 25 W/m2
07:06 52.2 °F /  11.2 °C 48 °F /  8.9 °C 30.1in /  1019.0hPa Calm     86% 0in /  0.0mm 26 W/m2
07:11 52.2 °F /  11.2 °C 48 °F /  8.9 °C 30.1in /  1019.0hPa Calm     86% 0in /  0.0mm 26 W/m2
07:16 52.5 °F /  11.4 °C 48.4 °F /  9.1 °C 30.1in /  1019.0hPa Calm     86% 0in /  0.0mm 28 W/m2
07:21 52.9 °F /  11.6 °C 48.7 °F /  9.3 °C 30.1in /  1019.0hPa Calm   1mph /  1.6km/h 86% 0in /  0.0mm 30 W/m2
07:26 53.2 °F /  11.8 °C 48.9 °F /  9.4 °C 30.1in /  1019.0hPa WNW 0.9mph /  1.4km/h 2mph /  3.2km/h 85% 0in /  0.0mm 32 W/m2
07:31 54 °F /  12.2 °C 49.3 °F /  9.6 °C 30.1in /  1019.0hPa NW 2mph /  3.2km/h 3mph /  4.8km/h 84% 0in /  0.0mm 33 W/m2
07:36 54.5 °F /  12.5 °C 49.5 °F /  9.7 °C 30.1in /  1019.0hPa Calm   1mph /  1.6km/h 83% 0in /  0.0mm 35 W/m2
07:41 55 °F /  12.8 °C 49.6 °F /  9.8 °C 30.1in /  1019.3hPa Calm   1mph /  1.6km/h 82% 0in /  0.0mm 37 W/m2
07:46 55.2 °F /  12.9 °C 49.5 °F /  9.7 °C 30.1in /  1019.3hPa Calm     81% 0in /  0.0mm 35 W/m2
07:51 55.6 °F /  13.1 °C 49.8 °F /  9.9 °C 30.1in /  1019.3hPa Calm     81% 0in /  0.0mm 37 W/m2
07:56 55.9 °F /  13.3 °C 50.2 °F /  10.1 °C 30.1in /  1019.3hPa Calm     81% 0in /  0.0mm 40 W/m2
08:01 56.3 °F /  13.5 °C 50.2 °F /  10.1 °C 30.1in /  1019.3hPa Calm   1mph /  1.6km/h 80% 0in /  0.0mm 118 W/m2
08:06 56.8 °F /  13.8 °C 50.4 °F /  10.2 °C 30.1in /  1019.3hPa Calm   1mph /  1.6km/h 79% 0in /  0.0mm 127 W/m2
08:11 57.6 °F /  14.2 °C 50.7 °F /  10.4 °C 30.1in /  1019.6hPa Calm   1mph /  1.6km/h 78% 0in /  0.0mm 244 W/m2
08:16 58.3 °F /  14.6 °C 51.1 °F /  10.6 °C 30.1in /  1019.6hPa Calm   1mph /  1.6km/h 77% 0in /  0.0mm 243 W/m2
08:21 58.8 °F /  14.9 °C 51.3 °F /  10.7 °C 30.1in /  1019.6hPa NNW 0.9mph /  1.4km/h 1mph /  1.6km/h 76% 0in /  0.0mm 206 W/m2
08:26 59.5 °F /  15.3 °C 51.3 °F /  10.7 °C 30.1in /  1019.6hPa Calm   1mph /  1.6km/h 74% 0in /  0.0mm 107 W/m2
08:31 60.1 °F /  15.6 °C 51.8 °F /  11 °C 30.1in /  1019.6hPa WNW 2mph /  3.2km/h 2mph /  3.2km/h 74% 0in /  0.0mm 58 W/m2
08:36 60.4 °F /  15.8 °C 51.8 °F /  11 °C 30.1in /  1019.6hPa Calm   2mph /  3.2km/h 73% 0in /  0.0mm 56 W/m2
08:41 61.3 °F /  16.3 °C 51.8 °F /  11 °C 30.1in /  1019.6hPa ENE 0.9mph /  1.4km/h 3mph /  4.8km/h 71% 0in /  0.0mm 56 W/m2
08:46 62.2 °F /  16.8 °C 52 °F /  11.1 °C 30.1in /  1019.6hPa North 2mph /  3.2km/h 2mph /  3.2km/h 69% 0in /  0.0mm 54 W/m2
08:51 62.8 °F /  17.1 °C 52 °F /  11.1 °C 30.1in /  1019.6hPa NW 0.9mph /  1.4km/h 2mph /  3.2km/h 68% 0in /  0.0mm 54 W/m2
08:56 63 °F /  17.2 °C 51.8 °F /  11 °C 30.1in /  1019.6hPa North 0.9mph /  1.4km/h 4mph /  6.4km/h 67% 0in /  0.0mm 60 W/m2
09:01 63 °F /  17.2 °C 52.2 °F /  11.2 °C 30.1in /  1019.6hPa WNW 2.9mph /  4.7km/h 3mph /  4.8km/h 68% 0in /  0.0mm 62 W/m2
09:06 62.8 °F /  17.1 °C 51.3 °F /  10.7 °C 30.1in /  1019.6hPa West 0.9mph /  1.4km/h 3mph /  4.8km/h 66% 0in /  0.0mm 65 W/m2
09:11 63 °F /  17.2 °C 51.4 °F /  10.8 °C 30.1in /  1019.6hPa West 4mph /  6.4km/h 7mph /  11.3km/h 66% 0in /  0.0mm 97 W/m2
09:16 63 °F /  17.2 °C 51.4 °F /  10.8 °C 30.1in /  1019.6hPa Calm   3mph /  4.8km/h 66% 0in /  0.0mm 258 W/m2
09:21 63.1 °F /  17.3 °C 51.3 °F /  10.7 °C 30.1in /  1019.6hPa NW 2.9mph /  4.7km/h 7mph /  11.3km/h 65% 0in /  0.0mm 418 W/m2
09:26 63.5 °F /  17.5 °C 51.4 °F /  10.8 °C 30.1in /  1019.6hPa WNW 2.9mph /  4.7km/h 3mph /  4.8km/h 65% 0in /  0.0mm 394 W/m2
09:31 63.7 °F /  17.6 °C 50.9 °F /  10.5 °C 30.1in /  1019.6hPa SW 2.9mph /  4.7km/h 8mph /  12.9km/h 63% 0in /  0.0mm 415 W/m2
09:36 63.7 °F /  17.6 °C 51.3 °F /  10.7 °C 30.1in /  1019.6hPa WNW 2.9mph /  4.7km/h 8mph /  12.9km/h 64% 0in /  0.0mm 450 W/m2
09:41 63.9 °F /  17.7 °C 51.1 °F /  10.6 °C 30.1in /  1019.6hPa WNW 2mph /  3.2km/h 4mph /  6.4km/h 63% 0in /  0.0mm 490 W/m2
09:46 64.2 °F /  17.9 °C 50.9 °F /  10.5 °C 30.1in /  1019.6hPa WSW 2mph /  3.2km/h 8mph /  12.9km/h 62% 0in /  0.0mm 490 W/m2
09:51 64.6 °F /  18.1 °C 50.9 °F /  10.5 °C 30.1in /  1020.0hPa NNW 2mph /  3.2km/h 4mph /  6.4km/h 61% 0in /  0.0mm 515 W/m2
09:56 64.8 °F /  18.2 °C 50.5 °F /  10.3 °C 30.1in /  1020.0hPa WNW 4mph /  6.4km/h 4mph /  6.4km/h 60% 0in /  0.0mm 439 W/m2
10:01 64.9 °F /  18.3 °C 50.2 °F /  10.1 °C 30.1in /  1019.6hPa WSW 8.1mph /  13km/h 8mph /  12.9km/h 59% 0in /  0.0mm 111 W/m2
10:06 64.9 °F /  18.3 °C 48.9 °F /  9.4 °C 30.1in /  1020.0hPa SW 0.9mph /  1.4km/h 8mph /  12.9km/h 56% 0in /  0.0mm 158 W/m2
10:11 65.1 °F /  18.4 °C 49.5 °F /  9.7 °C 30.1in /  1020.0hPa WNW 4mph /  6.4km/h 8mph /  12.9km/h 57% 0in /  0.0mm 566 W/m2
10:16 65.1 °F /  18.4 °C 49.5 °F /  9.7 °C 30.1in /  1019.6hPa Calm   4mph /  6.4km/h 57% 0in /  0.0mm 568 W/m2
10:21 65.5 °F /  18.6 °C 49.8 °F /  9.9 °C 30.1in /  1019.6hPa NW 0.9mph /  1.4km/h 9mph /  14.5km/h 57% 0in /  0.0mm 487 W/m2
10:26 65.7 °F /  18.7 °C 49.5 °F /  9.7 °C 30.1in /  1020.0hPa West 0.9mph /  1.4km/h 4mph /  6.4km/h 56% 0in /  0.0mm 573 W/m2
10:31 65.8 °F /  18.8 °C 49.3 °F /  9.6 °C 30.1in /  1020.0hPa West 0.9mph /  1.4km/h 8mph /  12.9km/h 55% 0in /  0.0mm 598 W/m2
10:36 66.4 °F /  19.1 °C 49.6 °F /  9.8 °C 30.1in /  1020.0hPa WNW 2.9mph /  4.7km/h 7mph /  11.3km/h 55% 0in /  0.0mm 531 W/m2
10:41 66.4 °F /  19.1 °C 49.3 °F /  9.6 °C 30.1in /  1019.6hPa WSW 2mph /  3.2km/h 8mph /  12.9km/h 54% 0in /  0.0mm 642 W/m2
10:46 66.6 °F /  19.2 °C 49.8 °F /  9.9 °C 30.1in /  1019.6hPa WNW 2.9mph /  4.7km/h 5mph /  8km/h 55% 0in /  0.0mm 612 W/m2
10:51 66.7 °F /  19.3 °C 50 °F /  10 °C 30.1in /  1019.6hPa West 2mph /  3.2km/h 8mph /  12.9km/h 55% 0in /  0.0mm 633 W/m2
10:56 66.9 °F /  19.4 °C 50.2 °F /  10.1 °C 30.1in /  1019.6hPa NW 2.9mph /  4.7km/h 5mph /  8km/h 55% 0in /  0.0mm 677 W/m2
11:01 66.9 °F /  19.4 °C 49.8 °F /  9.9 °C 30.1in /  1019.6hPa West 2mph /  3.2km/h 3mph /  4.8km/h 54% 0in /  0.0mm 628 W/m2
11:06 67.1 °F /  19.5 °C 50.4 °F /  10.2 °C 30.1in /  1019.6hPa West 0.9mph /  1.4km/h 3mph /  4.8km/h 55% 0in /  0.0mm 687 W/m2
11:11 67.5 °F /  19.7 °C 50.7 °F /  10.4 °C 30.1in /  1019.6hPa NNW 2.9mph /  4.7km/h 3mph /  4.8km/h 55% 0in /  0.0mm 671 W/m2
11:16 67.6 °F /  19.8 °C 50.4 °F /  10.2 °C 30.1in /  1019.6hPa West 2mph /  3.2km/h 2mph /  3.2km/h 54% 0in /  0.0mm 698 W/m2
11:22 68 °F /  20 °C 50.2 °F /  10.1 °C 30.1in /  1019.6hPa NNE 2.9mph /  4.7km/h 7mph /  11.3km/h 53% 0in /  0.0mm 698 W/m2
11:27 68.2 °F /  20.1 °C 49.8 °F /  9.9 °C 30.1in /  1019.6hPa WNW 2.9mph /  4.7km/h 4mph /  6.4km/h 52% 0in /  0.0mm 729 W/m2
11:32 68.4 °F /  20.2 °C 50 °F /  10 °C 30.1in /  1019.6hPa Calm   2mph /  3.2km/h 52% 0in /  0.0mm 744 W/m2
11:37 68.7 °F /  20.4 °C 51.4 °F /  10.8 °C 30.1in /  1019.6hPa WNW 4.9mph /  7.9km/h 5mph /  8km/h 54% 0in /  0.0mm 733 W/m2
11:42 68.7 °F /  20.4 °C 49.8 °F /  9.9 °C 30.1in /  1019.6hPa West 4mph /  6.4km/h 8mph /  12.9km/h 51% 0in /  0.0mm 758 W/m2
11:47 68.5 °F /  20.3 °C 50.2 °F /  10.1 °C 30.1in /  1019.6hPa WNW 0.9mph /  1.4km/h 5mph /  8km/h 52% 0in /  0.0mm 770 W/m2
11:52 68.9 °F /  20.5 °C 49.5 °F /  9.7 °C 30.1in /  1019.6hPa North 0.9mph /  1.4km/h 3mph /  4.8km/h 50% 0in /  0.0mm 765 W/m2
11:57 69.1 °F /  20.6 °C 49.6 °F /  9.8 °C 30.1in /  1019.6hPa WNW 0.9mph /  1.4km/h 5mph /  8km/h 50% 0in /  0.0mm 751 W/m2
12:02 69.3 °F /  20.7 °C 49.8 °F /  9.9 °C 30.1in /  1019.6hPa NNW 2mph /  3.2km/h 3mph /  4.8km/h 50% 0in /  0.0mm 782 W/m2
12:07 69.6 °F /  20.9 °C 49.6 °F /  9.8 °C 30.1in /  1019.6hPa NW 0.9mph /  1.4km/h 2mph /  3.2km/h 49% 0in /  0.0mm 780 W/m2
12:12 70.3 °F /  21.3 °C 49.6 °F /  9.8 °C 30.1in /  1019.6hPa NNW 8.1mph /  13km/h 8mph /  12.9km/h 48% 0in /  0.0mm 805 W/m2
12:17 70.3 °F /  21.3 °C 49.6 °F /  9.8 °C 30.1in /  1019.6hPa WSW 0.9mph /  1.4km/h 2mph /  3.2km/h 48% 0in /  0.0mm 809 W/m2
12:22 70.9 °F /  21.6 °C 49.6 °F /  9.8 °C 30.1in /  1019.6hPa West 4mph /  6.4km/h 7mph /  11.3km/h 47% 0in /  0.0mm 819 W/m2
12:27 70.7 °F /  21.5 °C 49.5 °F /  9.7 °C 30.1in /  1019.6hPa WNW 2.9mph /  4.7km/h 4mph /  6.4km/h 47% 0in /  0.0mm 823 W/m2
12:32 70.9 °F /  21.6 °C 50.2 °F /  10.1 °C 30.1in /  1019.6hPa ESE 0.9mph /  1.4km/h 3mph /  4.8km/h 48% 0in /  0.0mm 826 W/m2
12:37 70.9 °F /  21.6 °C 49.1 °F /  9.5 °C 30.1in /  1019.6hPa SW 2mph /  3.2km/h 7mph /  11.3km/h 46% 0in /  0.0mm 833 W/m2
12:42 71.1 °F /  21.7 °C 49.8 °F /  9.9 °C 30.1in /  1019.6hPa NW 2.9mph /  4.7km/h 4mph /  6.4km/h 47% 0in /  0.0mm 824 W/m2
12:47 71.8 °F /  22.1 °C 49.8 °F /  9.9 °C 30.1in /  1019.6hPa West 4mph /  6.4km/h 10mph /  16.1km/h 46% 0in /  0.0mm 846 W/m2
12:52 72 °F /  22.2 °C 50 °F /  10 °C 30.1in /  1019.6hPa ESE 2.9mph /  4.7km/h 4mph /  6.4km/h 46% 0in /  0.0mm 846 W/m2
12:57 72.3 °F /  22.4 °C 50.4 °F /  10.2 °C 30.1in /  1019.6hPa NNW 0.9mph /  1.4km/h 2mph /  3.2km/h 46% 0in /  0.0mm 844 W/m2
13:02 72.7 °F /  22.6 °C 50.2 °F /  10.1 °C 30.1in /  1019.6hPa WSW 4.9mph /  7.9km/h 8mph /  12.9km/h 45% 0in /  0.0mm 833 W/m2
13:07 72.5 °F /  22.5 °C 49.3 °F /  9.6 °C 30.1in /  1019.6hPa WNW 2mph /  3.2km/h 6mph /  9.7km/h 44% 0in /  0.0mm 858 W/m2
13:12 72.3 °F /  22.4 °C 49.1 °F /  9.5 °C 30.1in /  1019.6hPa WNW 4.9mph /  7.9km/h 8mph /  12.9km/h 44% 0in /  0.0mm 860 W/m2
13:17 72.3 °F /  22.4 °C 49.8 °F /  9.9 °C 30.1in /  1019.3hPa NNW 4mph /  6.4km/h 8mph /  12.9km/h 45% 0in /  0.0mm 868 W/m2
13:23 72.9 °F /  22.7 °C 50.9 °F /  10.5 °C 30.1in /  1019.3hPa Calm   3mph /  4.8km/h 46% 0in /  0.0mm 863 W/m2
13:28 73.2 °F /  22.9 °C 50.5 °F /  10.3 °C 30.1in /  1019.3hPa West 2mph /  3.2km/h 4mph /  6.4km/h 45% 0in /  0.0mm 867 W/m2
13:33 73 °F /  22.8 °C 49.3 °F /  9.6 °C 30.1in /  1019.3hPa NW 2.9mph /  4.7km/h 6mph /  9.7km/h 43% 0in /  0.0mm 867 W/m2
13:38 73.4 °F /  23 °C 49.5 °F /  9.7 °C 30.1in /  1019.3hPa West 6mph /  9.7km/h 8mph /  12.9km/h 43% 0in /  0.0mm 861 W/m2
13:43 73.6 °F /  23.1 °C 49.6 °F /  9.8 °C 30.1in /  1019.3hPa NW 2mph /  3.2km/h 4mph /  6.4km/h 43% 0in /  0.0mm 861 W/m2
13:48 73.8 °F /  23.2 °C 49.3 °F /  9.6 °C 30.1in /  1019.3hPa NW 2.9mph /  4.7km/h 6mph /  9.7km/h 42% 0in /  0.0mm 865 W/m2
13:53 73.9 °F /  23.3 °C 50 °F /  10 °C 30.1in /  1019.3hPa NE 0.9mph /  1.4km/h 2mph /  3.2km/h 43% 0in /  0.0mm 875 W/m2
13:58 73.9 °F /  23.3 °C 49.5 °F /  9.7 °C 30.1in /  1019.0hPa South 0.9mph /  1.4km/h 4mph /  6.4km/h 42% 0in /  0.0mm 874 W/m2
14:03 73.8 °F /  23.2 °C 50.5 °F /  10.3 °C 30.1in /  1019.0hPa West 6mph /  9.7km/h 6mph /  9.7km/h 44% 0in /  0.0mm 870 W/m2
14:08 73.6 °F /  23.1 °C 50.9 °F /  10.5 °C 30.1in /  1019.0hPa WNW 2mph /  3.2km/h 3mph /  4.8km/h 45% 0in /  0.0mm 861 W/m2
14:13 73.9 °F /  23.3 °C 50 °F /  10 °C 30.1in /  1019.0hPa SW 0.9mph /  1.4km/h 5mph /  8km/h 43% 0in /  0.0mm 863 W/m2
14:18 74.5 °F /  23.6 °C 49.3 °F /  9.6 °C 30.1in /  1019.0hPa NW 4.9mph /  7.9km/h 5mph /  8km/h 41% 0in /  0.0mm 858 W/m2
14:23 74.7 °F /  23.7 °C 48.7 °F /  9.3 °C 30.1in /  1019.0hPa NW 2mph /  3.2km/h 3mph /  4.8km/h 40% 0in /  0.0mm 854 W/m2
14:28 74.7 °F /  23.7 °C 49.5 °F /  9.7 °C 30.1in /  1019.0hPa West 6mph /  9.7km/h 9mph /  14.5km/h 41% 0in /  0.0mm 844 W/m2
14:33 74.7 °F /  23.7 °C 49.5 °F /  9.7 °C 30.1in /  1019.0hPa WNW 4.9mph /  7.9km/h 9mph /  14.5km/h 41% 0in /  0.0mm 853 W/m2
14:38 74.3 °F /  23.5 °C 49.6 °F /  9.8 °C 30.1in /  1019.0hPa SSW 2mph /  3.2km/h 6mph /  9.7km/h 42% 0in /  0.0mm 844 W/m2
14:43 74.5 °F /  23.6 °C 49.8 °F /  9.9 °C 30.1in /  1019.0hPa NE 0.9mph /  1.4km/h 2mph /  3.2km/h 42% 0in /  0.0mm 835 W/m2
14:48 75 °F /  23.9 °C 50.4 °F /  10.2 °C 30.1in /  1019.0hPa Calm   2mph /  3.2km/h 42% 0in /  0.0mm 849 W/m2
14:53 75.4 °F /  24.1 °C 49.5 °F /  9.7 °C 30.1in /  1018.6hPa NNE 4mph /  6.4km/h 4mph /  6.4km/h 40% 0in /  0.0mm 831 W/m2
14:58 75.7 °F /  24.3 °C 48.4 °F /  9.1 °C 30.1in /  1019.0hPa NW 2.9mph /  4.7km/h 8mph /  12.9km/h 38% 0in /  0.0mm 824 W/m2
15:03 75.9 °F /  24.4 °C 49.1 °F /  9.5 °C 30.1in /  1019.0hPa WNW 4.9mph /  7.9km/h 5mph /  8km/h 39% 0in /  0.0mm 788 W/m2
15:08 75.7 °F /  24.3 °C 49.1 °F /  9.5 °C 30.1in /  1019.0hPa West 4mph /  6.4km/h 6mph /  9.7km/h 39% 0in /  0.0mm 805 W/m2
15:13 76.1 °F /  24.5 °C 50 °F /  10 °C 30.1in /  1018.6hPa NW 4mph /  6.4km/h 5mph /  8km/h 40% 0in /  0.0mm 819 W/m2
15:18 76.1 °F /  24.5 °C 50 °F /  10 °C 30.1in /  1019.0hPa NW 4.9mph /  7.9km/h 6mph /  9.7km/h 40% 0in /  0.0mm 831 W/m2
15:23 75.9 °F /  24.4 °C 50.5 °F /  10.3 °C 30.1in /  1018.6hPa ESE 6mph /  9.7km/h 6mph /  9.7km/h 41% 0in /  0.0mm 817 W/m2
15:28 75.9 °F /  24.4 °C 49.8 °F /  9.9 °C 30.1in /  1018.6hPa East 0.9mph /  1.4km/h 2mph /  3.2km/h 40% 0in /  0.0mm 823 W/m2
15:33 76.6 °F /  24.8 °C 49.8 °F /  9.9 °C 30.1in /  1018.6hPa SW 4mph /  6.4km/h 10mph /  16.1km/h 39% 0in /  0.0mm 798 W/m2
15:38 76.6 °F /  24.8 °C 49.8 °F /  9.9 °C 30.1in /  1018.6hPa NW 2.9mph /  4.7km/h 4mph /  6.4km/h 39% 0in /  0.0mm 788 W/m2
15:43 76.6 °F /  24.8 °C 49.8 °F /  9.9 °C 30.1in /  1018.6hPa NW 4mph /  6.4km/h 6mph /  9.7km/h 39% 0in /  0.0mm 800 W/m2
15:48 77.2 °F /  25.1 °C 47.5 °F /  8.6 °C 30.1in /  1018.6hPa WSW 4.9mph /  7.9km/h 8mph /  12.9km/h 35% 0in /  0.0mm 780 W/m2
15:53 77 °F /  25 °C 48 °F /  8.9 °C 30.1in /  1018.6hPa WNW 2.9mph /  4.7km/h 5mph /  8km/h 36% 0in /  0.0mm 786 W/m2
15:58 77.2 °F /  25.1 °C 48.2 °F /  9 °C 30.1in /  1018.6hPa WSW 4.9mph /  7.9km/h 8mph /  12.9km/h 36% 0in /  0.0mm 766 W/m2
16:03 77.2 °F /  25.1 °C 48.9 °F /  9.4 °C 30.1in /  1018.3hPa NE 4mph /  6.4km/h 4mph /  6.4km/h 37% 0in /  0.0mm 745 W/m2
16:08 77.4 °F /  25.2 °C 48.4 °F /  9.1 °C 30.1in /  1018.3hPa Calm   4mph /  6.4km/h 36% 0in /  0.0mm 742 W/m2
16:13 77.7 °F /  25.4 °C 50 °F /  10 °C 30.1in /  1018.3hPa Calm   4mph /  6.4km/h 38% 0in /  0.0mm 721 W/m2
16:18 77.9 °F /  25.5 °C 49.5 °F /  9.7 °C 30.1in /  1018.3hPa SW 4.9mph /  7.9km/h 6mph /  9.7km/h 37% 0in /  0.0mm 714 W/m2
16:23 78.1 °F /  25.6 °C 49.6 °F /  9.8 °C 30.1in /  1018.3hPa WSW 4.9mph /  7.9km/h 10mph /  16.1km/h 37% 0in /  0.0mm 724 W/m2
16:28 77.7 °F /  25.4 °C 48.6 °F /  9.2 °C 30.1in /  1018.3hPa West 4mph /  6.4km/h 5mph /  8km/h 36% 0in /  0.0mm 710 W/m2
16:33 77.7 °F /  25.4 °C 47.1 °F /  8.4 °C 30.1in /  1018.3hPa WNW 4.9mph /  7.9km/h 9mph /  14.5km/h 34% 0in /  0.0mm 708 W/m2
16:38 77.9 °F /  25.5 °C 48 °F /  8.9 °C 30.1in /  1018.0hPa WSW 2.9mph /  4.7km/h 3mph /  4.8km/h 35% 0in /  0.0mm 696 W/m2
16:43 78.3 °F /  25.7 °C 49.1 °F /  9.5 °C 30.1in /  1018.0hPa WNW 4mph /  6.4km/h 8mph /  12.9km/h 36% 0in /  0.0mm 689 W/m2
16:48 78.3 °F /  25.7 °C 49.8 °F /  9.9 °C 30.1in /  1018.0hPa WNW 6.9mph /  11.1km/h 7mph /  11.3km/h 37% 0in /  0.0mm 680 W/m2
16:53 78.4 °F /  25.8 °C 50 °F /  10 °C 30.1in /  1018.0hPa WSW 4mph /  6.4km/h 4mph /  6.4km/h 37% 0in /  0.0mm 679 W/m2
16:58 78.6 °F /  25.9 °C 48.7 °F /  9.3 °C 30.1in /  1018.0hPa WNW 2mph /  3.2km/h 9mph /  14.5km/h 35% 0in /  0.0mm 670 W/m2
17:03 78.4 °F /  25.8 °C 49.3 °F /  9.6 °C 30.1in /  1018.0hPa NW 4mph /  6.4km/h 7mph /  11.3km/h 36% 0in /  0.0mm 650 W/m2
17:08 78.6 °F /  25.9 °C 49.5 °F /  9.7 °C 30.1in /  1018.0hPa West 2.9mph /  4.7km/h 4mph /  6.4km/h 36% 0in /  0.0mm 647 W/m2
17:13 79 °F /  26.1 °C 49.8 °F /  9.9 °C 30.1in /  1018.0hPa North 4.9mph /  7.9km/h 5mph /  8km/h 36% 0in /  0.0mm 638 W/m2
17:18 79 °F /  26.1 °C 48.9 °F /  9.4 °C 30.1in /  1018.0hPa West 6.9mph /  11.1km/h 7mph /  11.3km/h 35% 0in /  0.0mm 603 W/m2
17:23 78.8 °F /  26 °C 48.9 °F /  9.4 °C 30.1in /  1018.0hPa NW 2mph /  3.2km/h 3mph /  4.8km/h 35% 0in /  0.0mm 577 W/m2
17:28 79 °F /  26.1 °C 48.9 °F /  9.4 °C 30.1in /  1017.6hPa NNW 2mph /  3.2km/h 3mph /  4.8km/h 35% 0in /  0.0mm 550 W/m2
17:33 79.2 °F /  26.2 °C 49.1 °F /  9.5 °C 30.1in /  1017.6hPa WSW 2mph /  3.2km/h 7mph /  11.3km/h 35% 0in /  0.0mm 485 W/m2
17:38 79.2 °F /  26.2 °C 49.8 °F /  9.9 °C 30.1in /  1017.6hPa NW 2.9mph /  4.7km/h 3mph /  4.8km/h 36% 0in /  0.0mm 494 W/m2
17:43 79.3 °F /  26.3 °C 50 °F /  10 °C 30.1in /  1017.6hPa West 2.9mph /  4.7km/h 4mph /  6.4km/h 36% 0in /  0.0mm 545 W/m2
17:48 79.2 °F /  26.2 °C 49.8 °F /  9.9 °C 30.1in /  1017.6hPa West 2.9mph /  4.7km/h 4mph /  6.4km/h 36% 0in /  0.0mm 526 W/m2
17:53 79 °F /  26.1 °C 49.8 °F /  9.9 °C 30.1in /  1017.6hPa North 6mph /  9.7km/h 8mph /  12.9km/h 36% 0in /  0.0mm 510 W/m2
17:58 79 °F /  26.1 °C 49.8 °F /  9.9 °C 30.1in /  1017.6hPa WNW 2mph /  3.2km/h 4mph /  6.4km/h 36% 0in /  0.0mm 483 W/m2
18:03 79 °F /  26.1 °C 48.9 °F /  9.4 °C 30.1in /  1017.6hPa NW 4mph /  6.4km/h 12mph /  19.3km/h 35% 0in /  0.0mm 487 W/m2
18:08 79 °F /  26.1 °C 48.9 °F /  9.4 °C 30.1in /  1017.6hPa NW 2mph /  3.2km/h 8mph /  12.9km/h 35% 0in /  0.0mm 471 W/m2
18:14 79 °F /  26.1 °C 48.2 °F /  9 °C 30.1in /  1017.6hPa SW 2mph /  3.2km/h 4mph /  6.4km/h 34% 0in /  0.0mm 462 W/m2
18:19 79.2 °F /  26.2 °C 48.4 °F /  9.1 °C 30.1in /  1017.6hPa NW 2mph /  3.2km/h 9mph /  14.5km/h 34% 0in /  0.0mm 448 W/m2
18:24 79.2 °F /  26.2 °C 49.1 °F /  9.5 °C 30.1in /  1017.6hPa NNW 2mph /  3.2km/h 5mph /  8km/h 35% 0in /  0.0mm 431 W/m2
18:29 79.2 °F /  26.2 °C 49.1 °F /  9.5 °C 30.1in /  1017.6hPa WSW 8.1mph /  13km/h 9mph /  14.5km/h 35% 0in /  0.0mm 417 W/m2
18:34 79 °F /  26.1 °C 48.9 °F /  9.4 °C 30.1in /  1017.6hPa WNW 2mph /  3.2km/h 7mph /  11.3km/h 35% 0in /  0.0mm 404 W/m2
18:39 79 °F /  26.1 °C 48.9 °F /  9.4 °C 30.1in /  1017.6hPa NW 2.9mph /  4.7km/h 6mph /  9.7km/h 35% 0in /  0.0mm 387 W/m2
18:44 79 °F /  26.1 °C 49.8 °F /  9.9 °C 30.1in /  1017.6hPa WNW 2mph /  3.2km/h 5mph /  8km/h 36% 0in /  0.0mm 362 W/m2
18:49 79.2 °F /  26.2 °C 49.1 °F /  9.5 °C 30.1in /  1017.6hPa Calm   2mph /  3.2km/h 35% 0in /  0.0mm 323 W/m2
18:54 79.2 °F /  26.2 °C 49.1 °F /  9.5 °C 30.1in /  1017.6hPa North 2.9mph /  4.7km/h 5mph /  8km/h 35% 0in /  0.0mm 304 W/m2
18:59 79.2 °F /  26.2 °C 49.1 °F /  9.5 °C 30.1in /  1017.6hPa NW 0.9mph /  1.4km/h 4mph /  6.4km/h 35% 0in /  0.0mm 278 W/m2
19:04 79 °F /  26.1 °C 49.8 °F /  9.9 °C 30.1in /  1017.6hPa West 2.9mph /  4.7km/h 8mph /  12.9km/h 36% 0in /  0.0mm 246 W/m2
19:09 78.8 °F /  26 °C 49.6 °F /  9.8 °C 30.1in /  1017.6hPa NW 2mph /  3.2km/h 7mph /  11.3km/h 36% 0in /  0.0mm 243 W/m2
19:15 79 °F /  26.1 °C 49.8 °F /  9.9 °C 30.1in /  1017.6hPa West 2.9mph /  4.7km/h 6mph /  9.7km/h 36% 0in /  0.0mm 223 W/m2
19:20 78.8 °F /  26 °C 48.9 °F /  9.4 °C 30in /  1017.3hPa WNW 2mph /  3.2km/h 7mph /  11.3km/h 35% 0in /  0.0mm 195 W/m2
19:25 78.4 °F /  25.8 °C 47.7 °F /  8.7 °C 30.1in /  1017.6hPa NW 2mph /  3.2km/h 5mph /  8km/h 34% 0in /  0.0mm 202 W/m2
19:30 78.4 °F /  25.8 °C 48.6 °F /  9.2 °C 30.1in /  1017.6hPa WNW 2mph /  3.2km/h 2mph /  3.2km/h 35% 0in /  0.0mm 209 W/m2
19:35 78.4 °F /  25.8 °C 47.7 °F /  8.7 °C 30.1in /  1017.6hPa West 2mph /  3.2km/h 4mph /  6.4km/h 34% 0in /  0.0mm 216 W/m2
19:40 78.3 °F /  25.7 °C 48.4 °F /  9.1 °C 30.1in /  1017.6hPa WSW 2.9mph /  4.7km/h 4mph /  6.4km/h 35% 0in /  0.0mm 202 W/m2
19:45 78.1 °F /  25.6 °C 48.2 °F /  9 °C 30in /  1017.3hPa West 2mph /  3.2km/h 4mph /  6.4km/h 35% 0in /  0.0mm 209 W/m2
19:50 77.9 °F /  25.5 °C 48 °F /  8.9 °C 30in /  1017.3hPa WNW 2mph /  3.2km/h 3mph /  4.8km/h 35% 0in /  0.0mm 185 W/m2
19:55 77.9 °F /  25.5 °C 48.7 °F /  9.3 °C 30in /  1017.3hPa Calm   3mph /  4.8km/h 36% 0in /  0.0mm 151 W/m2
20:00 77.7 °F /  25.4 °C 48.6 °F /  9.2 °C 30.1in /  1017.6hPa WNW 2.9mph /  4.7km/h 6mph /  9.7km/h 36% 0in /  0.0mm 142 W/m2
20:05 77.5 °F /  25.3 °C 48.6 °F /  9.2 °C 30.1in /  1017.6hPa WNW 2mph /  3.2km/h 5mph /  8km/h 36% 0in /  0.0mm 113 W/m2
20:10 77.4 °F /  25.2 °C 49.1 °F /  9.5 °C 30.1in /  1017.6hPa West 2mph /  3.2km/h 4mph /  6.4km/h 37% 0in /  0.0mm 95 W/m2
20:15 77 °F /  25 °C 49.5 °F /  9.7 °C 30.1in /  1017.6hPa West 2mph /  3.2km/h 3mph /  4.8km/h 38% 0in /  0.0mm 81 W/m2
20:20 76.6 °F /  24.8 °C 49.1 °F /  9.5 °C 30.1in /  1017.6hPa WSW 2mph /  3.2km/h 2mph /  3.2km/h 38% 0in /  0.0mm 84 W/m2
20:25 76.3 °F /  24.6 °C 49.5 °F /  9.7 °C 30.1in /  1017.6hPa WNW 2mph /  3.2km/h 4mph /  6.4km/h 39% 0in /  0.0mm 84 W/m2
20:30 75.9 °F /  24.4 °C 49.8 °F /  9.9 °C 30.1in /  1017.6hPa WSW 0.9mph /  1.4km/h 3mph /  4.8km/h 40% 0in /  0.0mm 60 W/m2
20:35 75.6 °F /  24.2 °C 49.5 °F /  9.7 °C 30.1in /  1017.6hPa West 0.9mph /  1.4km/h 3mph /  4.8km/h 40% 0in /  0.0mm 47 W/m2
20:40 74.8 °F /  23.8 °C 48.9 °F /  9.4 °C 30.1in /  1017.6hPa WSW 2mph /  3.2km/h 3mph /  4.8km/h 40% 0in /  0.0mm 28 W/m2
20:45 74.3 °F /  23.5 °C 49.1 °F /  9.5 °C 30.1in /  1017.6hPa West 2.9mph /  4.7km/h 3mph /  4.8km/h 41% 0in /  0.0mm 25 W/m2
20:50 73.8 °F /  23.2 °C 49.3 °F /  9.6 °C 30.1in /  1017.6hPa WSW 0.9mph /  1.4km/h 2mph /  3.2km/h 42% 0in /  0.0mm 21 W/m2
20:55 73.2 °F /  22.9 °C 48.7 °F /  9.3 °C 30.1in /  1017.6hPa West 2.9mph /  4.7km/h 3mph /  4.8km/h 42% 0in /  0.0mm 18 W/m2
21:00 72.9 °F /  22.7 °C 49.1 °F /  9.5 °C 30.1in /  1017.6hPa West 2mph /  3.2km/h 2mph /  3.2km/h 43% 0in /  0.0mm 18 W/m2
21:05 72.5 °F /  22.5 °C 49.3 °F /  9.6 °C 30.1in /  1017.6hPa West 4mph /  6.4km/h 4mph /  6.4km/h 44% 0in /  0.0mm 12 W/m2
21:10 72 °F /  22.2 °C 49.5 °F /  9.7 °C 30.1in /  1017.6hPa West 0.9mph /  1.4km/h 2mph /  3.2km/h 45% 0in /  0.0mm 9 W/m2
21:15 71.6 °F /  22 °C 49.1 °F /  9.5 °C 30.1in /  1017.6hPa West 2mph /  3.2km/h 2mph /  3.2km/h 45% 0in /  0.0mm 5 W/m2
21:20 71.2 °F /  21.8 °C 49.5 °F /  9.7 °C 30.1in /  1018.0hPa WSW 2mph /  3.2km/h 3mph /  4.8km/h 46% 0in /  0.0mm 0 W/m2
21:25 70.9 °F /  21.6 °C 49.1 °F /  9.5 °C 30.1in /  1017.6hPa WSW 2mph /  3.2km/h 2mph /  3.2km/h 46% 0in /  0.0mm 0 W/m2
21:30 70.7 °F /  21.5 °C 49.5 °F /  9.7 °C 30.1in /  1018.0hPa WSW 0.9mph /  1.4km/h 3mph /  4.8km/h 47% 0in /  0.0mm 0 W/m2
21:35 70.5 °F /  21.4 °C 49.8 °F /  9.9 °C 30.1in /  1018.0hPa WSW 2mph /  3.2km/h 3mph /  4.8km/h 48% 0in /  0.0mm 0 W/m2
21:40 70.2 °F /  21.2 °C 49.6 °F /  9.8 °C 30.1in /  1018.0hPa WSW 0.9mph /  1.4km/h 2mph /  3.2km/h 48% 0in /  0.0mm 0 W/m2
21:45 70 °F /  21.1 °C 50 °F /  10 °C 30.1in /  1018.0hPa WSW 0.9mph /  1.4km/h 2mph /  3.2km/h 49% 0in /  0.0mm 0 W/m2
21:50 69.6 °F /  20.9 °C 50.2 °F /  10.1 °C 30.1in /  1018.0hPa Calm   1mph /  1.6km/h 50% 0in /  0.0mm 0 W/m2
21:55 69.3 °F /  20.7 °C 49.8 °F /  9.9 °C 30.1in /  1018.0hPa WSW 0.9mph /  1.4km/h 1mph /  1.6km/h 50% 0in /  0.0mm 0 W/m2
22:00 68.7 °F /  20.4 °C 49.8 °F /  9.9 °C 30.1in /  1018.0hPa WSW 0.9mph /  1.4km/h 1mph /  1.6km/h 51% 0in /  0.0mm 0 W/m2
22:05 68.4 °F /  20.2 °C 50 °F /  10 °C 30.1in /  1018.3hPa WSW 0.9mph /  1.4km/h 3mph /  4.8km/h 52% 0in /  0.0mm 0 W/m2
22:11 68 °F /  20 °C 49.6 °F /  9.8 °C 30.1in /  1018.3hPa WSW 0.9mph /  1.4km/h 3mph /  4.8km/h 52% 0in /  0.0mm 0 W/m2
22:16 67.6 °F /  19.8 °C 49.8 °F /  9.9 °C 30.1in /  1018.3hPa WSW 0.9mph /  1.4km/h 1mph /  1.6km/h 53% 0in /  0.0mm 0 W/m2
22:21 67.5 °F /  19.7 °C 49.8 °F /  9.9 °C 30.1in /  1018.3hPa WSW 0.9mph /  1.4km/h 3mph /  4.8km/h 53% 0in /  0.0mm 0 W/m2
22:26 67.3 °F /  19.6 °C 50 °F /  10 °C 30.1in /  1018.3hPa Calm   1mph /  1.6km/h 54% 0in /  0.0mm 0 W/m2
22:31 66.9 °F /  19.4 °C 49.8 °F /  9.9 °C 30.1in /  1018.3hPa Calm   1mph /  1.6km/h 54% 0in /  0.0mm 0 W/m2
22:36 66.7 °F /  19.3 °C 49.6 °F /  9.8 °C 30.1in /  1018.3hPa Calm   1mph /  1.6km/h 54% 0in /  0.0mm 0 W/m2
22:41 66.4 °F /  19.1 °C 49.6 °F /  9.8 °C 30.1in /  1018.3hPa Calm   1mph /  1.6km/h 55% 0in /  0.0mm 0 W/m2
22:46 66.2 °F /  19 °C 50 °F /  10 °C 30.1in /  1018.3hPa Calm     56% 0in /  0.0mm 0 W/m2
22:51 65.8 °F /  18.8 °C 49.6 °F /  9.8 °C 30.1in /  1018.3hPa Calm     56% 0in /  0.0mm 0 W/m2
22:57 65.7 °F /  18.7 °C 50 °F /  10 °C 30.1in /  1018.3hPa WSW 0.9mph /  1.4km/h 1mph /  1.6km/h 57% 0in /  0.0mm 0 W/m2
23:02 65.5 °F /  18.6 °C 49.8 °F /  9.9 °C 30.1in /  1018.3hPa Calm     57% 0in /  0.0mm 0 W/m2
23:07 65.1 °F /  18.4 °C 50 °F /  10 °C 30.1in /  1018.3hPa WSW 0.9mph /  1.4km/h 2mph /  3.2km/h 58% 0in /  0.0mm 0 W/m2
23:12 65.1 °F /  18.4 °C 50 °F /  10 °C 30.1in /  1018.3hPa West 0.9mph /  1.4km/h 1mph /  1.6km/h 58% 0in /  0.0mm 0 W/m2
23:17 65.3 °F /  18.5 °C 50.2 °F /  10.1 °C 30.1in /  1018.3hPa West 0.9mph /  1.4km/h 1mph /  1.6km/h 58% 0in /  0.0mm 0 W/m2
23:22 65.1 °F /  18.4 °C 50.4 °F /  10.2 °C 30.1in /  1018.3hPa Calm   1mph /  1.6km/h 59% 0in /  0.0mm 0 W/m2
23:27 65.1 °F /  18.4 °C 50.4 °F /  10.2 °C 30.1in /  1018.3hPa Calm   1mph /  1.6km/h 59% 0in /  0.0mm 0 W/m2
23:32 64.9 °F /  18.3 °C 50.2 °F /  10.1 °C 30.1in /  1018.3hPa Calm     59% 0in /  0.0mm 0 W/m2
23:37 64.8 °F /  18.2 °C 50.5 °F /  10.3 °C 30.1in /  1018.3hPa Calm     60% 0in /  0.0mm 0 W/m2
23:42 64.4 °F /  18 °C 50.2 °F /  10.1 °C 30.1in /  1018.3hPa Calm     60% 0in /  0.0mm 0 W/m2
23:47 64 °F /  17.8 °C 49.8 °F /  9.9 °C 30.1in /  1018.3hPa Calm     60% 0in /  0.0mm 0 W/m2
23:52 63.9 °F /  17.7 °C 50.2 °F /  10.1 °C 30.1in /  1018.3hPa WSW 0.9mph /  1.4km/h 1mph /  1.6km/h 61% 0in /  0.0mm 0 W/m2
23:57 63.5 °F /  17.5 °C 49.8 °F /  9.9 °C 30.1in /  1018.3hPa Calm     61% 0in /  0.0mm 0 W/m2
Juneau County Weather
Compliments of Weather Underground - 4 mb